Time;durP1;ratioP1;P1;durP2;ratioP2;P2;SDS_P1;SDS_P2;PMS_P1;PMS_P2;Temp;Humidity;BMP_temperature;BMP_pressure;BME280_temperature;BME280_humidity;BME280_pressure;Samples;Min_cycle;Max_cycle;Signal;HPM_P1;HPM_P2
2021/06/20 00:01:15;;;;;;;9.27;7.95;;;;;;;25.22;79.50;100429.84;4970921;28;20031;-77
2021/06/20 00:03:40;;;;;;;10.25;8.45;;;;;;;25.33;79.04;100424.63;4971393;28;20093;-77
2021/06/20 00:06:26;;;;;;;10.98;7.68;;;;;;;25.25;79.07;100437.97;4953664;28;20041;-77
2021/06/20 00:08:54;;;;;;;13.40;7.68;;;;;;;25.25;79.55;100417.88;4968832;28;20042;-77
2021/06/20 00:11:19;;;;;;;11.18;7.65;;;;;;;25.19;79.83;100405.94;4970224;28;20123;-77
2021/06/20 00:13:45;;;;;;;8.93;7.50;;;;;;;24.93;81.16;100406.25;4968835;28;20475;-77
2021/06/20 00:16:10;;;;;;;11.55;7.22;;;;;;;25.05;80.72;100408.09;4970145;28;20030;-77
2021/06/20 00:18:36;;;;;;;7.90;7.10;;;;;;;25.00;81.12;100388.66;4970529;28;20792;-77
2021/06/20 00:21:01;;;;;;;13.50;7.63;;;;;;;25.05;80.52;100372.25;4984786;28;20118;-77
2021/06/20 00:23:27;;;;;;;14.00;7.80;;;;;;;25.03;80.75;100376.69;4971422;28;20531;-77
2021/06/20 00:25:52;;;;;;;8.70;7.57;;;;;;;25.10;80.13;100370.13;4951081;28;20043;-77
2021/06/20 00:28:18;;;;;;;9.00;7.57;;;;;;;24.98;80.82;100366.28;4958462;28;20677;-77
2021/06/20 00:30:44;;;;;;;9.70;6.93;;;;;;;24.93;80.83;100361.41;4973297;28;20038;-77
2021/06/20 00:33:09;;;;;;;9.73;6.80;;;;;;;24.95;80.91;100356.19;4966937;28;20035;-77
2021/06/20 00:35:35;;;;;;;10.57;7.65;;;;;;;24.86;81.18;100348.69;4959847;28;20039;-77
2021/06/20 00:38:01;;;;;;;9.55;8.10;;;;;;;24.79;81.36;100334.44;4969783;28;20408;-77
2021/06/20 00:40:26;;;;;;;11.50;8.32;;;;;;;24.68;82.08;100317.59;4968224;28;20026;-77
2021/06/20 00:42:52;;;;;;;10.18;8.05;;;;;;;24.59;82.63;100310.06;4971353;28;20090;-77
2021/06/20 00:45:20;;;;;;;9.38;7.55;;;;;;;24.60;82.76;100299.84;4980242;28;20493;-77
2021/06/20 00:47:45;;;;;;;9.20;7.18;;;;;;;24.74;81.88;100294.50;4963967;28;20035;-77
2021/06/20 00:50:12;;;;;;;9.25;7.53;;;;;;;24.87;81.17;100297.84;4969315;28;20649;-77
2021/06/20 00:52:39;;;;;;;8.65;7.50;;;;;;;24.73;81.81;100286.69;4969910;28;20074;-77
2021/06/20 00:55:05;;;;;;;9.52;7.32;;;;;;;24.64;82.35;100273.63;4973140;28;20405;-77
2021/06/20 00:57:32;;;;;;;9.07;7.13;;;;;;;24.81;81.30;100268.63;4970679;28;20482;-77
2021/06/20 00:59:59;;;;;;;11.82;7.60;;;;;;;24.80;81.29;100273.38;4971085;28;20042;-76
2021/06/20 01:02:24;;;;;;;11.68;7.25;;;;;;;24.70;81.74;100271.81;4973563;28;20481;-77
2021/06/20 01:04:50;;;;;;;10.10;7.13;;;;;;;24.62;82.17;100265.06;4968427;28;20031;-77
2021/06/20 01:07:21;;;;;;;9.25;7.45;;;;;;;24.58;82.56;100264.50;4968605;28;20035;-77
2021/06/20 01:09:49;;;;;;;13.40;7.78;;;;;;;24.41;83.58;100270.75;4989865;28;20130;-77
2021/06/20 01:12:16;;;;;;;8.68;7.30;;;;;;;24.56;82.60;100277.94;4975343;28;20054;-77
2021/06/20 01:14:43;;;;;;;10.27;8.15;;;;;;;24.40;83.49;100278.25;4972608;28;20061;-77
2021/06/20 01:17:08;;;;;;;10.35;7.53;;;;;;;24.37;83.51;100279.16;4973101;28;20027;-77
2021/06/20 01:19:35;;;;;;;9.48;7.72;;;;;;;24.45;83.41;100285.88;4969748;28;20035;-77
2021/06/20 01:22:31;;;;;;;11.77;8.52;;;;;;;24.40;83.62;100285.72;4972901;28;20030;-77
2021/06/20 01:25:03;;;;;;;10.35;7.90;;;;;;;24.36;83.87;100302.41;4967936;28;20092;-77
2021/06/20 01:27:34;;;;;;;8.38;7.53;;;;;;;24.34;84.30;100318.63;4969395;28;20050;-77
2021/06/20 01:30:03;;;;;;;11.80;7.63;;;;;;;24.32;84.68;100328.56;4974145;28;20134;-77
2021/06/20 01:32:30;;;;;;;8.98;7.10;;;;;;;24.34;84.73;100335.16;4989101;28;20612;-77
2021/06/20 01:34:56;;;;;;;12.07;7.13;;;;;;;24.34;84.48;100350.91;4958445;28;20508;-76
2021/06/20 01:37:21;;;;;;;10.68;7.93;;;;;;;24.45;84.41;100360.25;4986540;28;20035;-77
2021/06/20 01:39:47;;;;;;;10.98;8.20;;;;;;;24.39;84.63;100364.06;4974096;28;20265;-77
2021/06/20 01:42:14;;;;;;;8.15;6.60;;;;;;;24.38;84.57;100360.56;4976948;28;20113;-77
2021/06/20 01:44:49;;;;;;;8.63;7.38;;;;;;;24.37;84.86;100355.50;4976250;28;20038;-77
2021/06/20 01:47:15;;;;;;;8.75;7.57;;;;;;;24.35;84.76;100352.44;4977563;28;20034;-77
2021/06/20 01:49:41;;;;;;;9.07;7.95;;;;;;;24.31;85.04;100347.09;4970777;28;20025;-77
2021/06/20 01:52:06;;;;;;;9.88;7.80;;;;;;;24.33;84.78;100338.34;4969378;28;20039;-76
2021/06/20 01:54:51;;;;;;;9.05;7.57;;;;;;;24.24;85.04;100332.81;4973191;28;20035;-77
2021/06/20 01:57:31;;;;;;;9.25;7.78;;;;;;;24.28;84.98;100322.44;4972367;28;20617;-77
2021/06/20 01:59:59;;;;;;;9.02;7.78;;;;;;;24.26;85.04;100305.59;4989783;23;20026;-73
2021/06/20 02:02:27;;;;;;;11.68;8.45;;;;;;;24.22;85.79;100300.25;5009383;28;20045;-72
2021/06/20 02:04:55;;;;;;;10.85;7.97;;;;;;;24.23;85.86;100299.03;5010420;28;20120;-72
2021/06/20 02:07:21;;;;;;;11.85;8.02;;;;;;;24.28;85.07;100279.16;5012087;28;20072;-71
2021/06/20 02:09:47;;;;;;;12.02;7.75;;;;;;;24.29;85.06;100272.44;4993454;28;20399;-72
2021/06/20 02:12:13;;;;;;;12.25;8.05;;;;;;;24.27;84.83;100266.63;5010901;28;20116;-71
2021/06/20 02:14:40;;;;;;;9.88;8.10;;;;;;;24.18;85.29;100259.09;5004716;28;20034;-71
2021/06/20 02:17:26;;;;;;;10.38;8.45;;;;;;;24.10;85.74;100257.88;5000654;28;20037;-71
2021/06/20 02:19:55;;;;;;;14.85;8.52;;;;;;;24.04;86.20;100253.44;4997217;28;20069;-72
2021/06/20 02:22:21;;;;;;;9.07;7.95;;;;;;;24.11;86.04;100255.88;5010409;28;20100;-71
2021/06/20 02:24:47;;;;;;;11.38;8.40;;;;;;;24.02;86.52;100251.13;5005312;28;20030;-71
2021/06/20 02:27:14;;;;;;;11.93;7.82;;;;;;;23.96;86.89;100244.66;5006124;28;20112;-71
2021/06/20 02:29:40;;;;;;;9.27;8.10;;;;;;;23.97;86.78;100265.47;4999996;28;20042;-72
2021/06/20 02:32:06;;;;;;;12.05;8.00;;;;;;;24.02;86.74;100267.63;4999070;28;20121;-71
2021/06/20 02:34:32;;;;;;;14.68;8.57;;;;;;;23.99;87.35;100260.28;4985465;28;20113;-70
2021/06/20 02:36:57;;;;;;;12.73;8.13;;;;;;;24.09;86.99;100255.56;5010482;28;20033;-72
2021/06/20 02:39:23;;;;;;;11.63;8.07;;;;;;;24.02;87.02;100244.88;5011620;28;20108;-72
2021/06/20 02:41:50;;;;;;;9.88;7.47;;;;;;;24.04;87.06;100243.16;5010606;28;20032;-71
2021/06/20 02:44:17;;;;;;;12.77;8.68;;;;;;;24.08;86.78;100232.00;4996958;28;20052;-71
2021/06/20 02:46:42;;;;;;;9.52;8.43;;;;;;;24.02;87.17;100222.84;5010606;28;20029;-71
2021/06/20 02:49:08;;;;;;;10.88;8.48;;;;;;;24.00;86.96;100211.50;5011326;28;20419;-72
2021/06/20 02:51:34;;;;;;;10.00;8.27;;;;;;;24.04;86.56;100198.41;4989199;28;20030;-71
2021/06/20 02:53:59;;;;;;;12.93;8.30;;;;;;;23.86;88.08;100198.34;5003238;28;20029;-72
2021/06/20 02:56:24;;;;;;;14.27;8.70;;;;;;;23.87;87.90;100194.34;5010437;28;20045;-71
2021/06/20 02:58:50;;;;;;;11.35;9.23;;;;;;;24.00;87.24;100181.22;5011179;28;20080;-72
2021/06/20 03:01:15;;;;;;;12.02;9.32;;;;;;;23.97;87.32;100184.88;4995648;28;20411;-71
2021/06/20 03:03:41;;;;;;;9.82;8.75;;;;;;;23.96;87.68;100172.38;5011097;28;20037;-71
2021/06/20 03:06:07;;;;;;;12.98;9.27;;;;;;;23.95;87.72;100165.31;5006384;28;20037;-72
2021/06/20 03:08:32;;;;;;;12.07;8.55;;;;;;;23.89;88.34;100147.88;4998841;28;20045;-72
2021/06/20 03:10:58;;;;;;;13.10;10.00;;;;;;;23.96;87.75;100142.84;5006498;28;20037;-70
2021/06/20 03:13:23;;;;;;;17.42;9.50;;;;;;;23.80;89.08;100142.38;5008158;28;20069;-71
2021/06/20 03:15:49;;;;;;;12.80;9.93;;;;;;;23.80;89.31;100145.13;5001188;28;20084;-71
2021/06/20 03:18:15;;;;;;;12.95;10.55;;;;;;;23.84;89.03;100129.25;5007668;28;20045;-72
2021/06/20 03:20:41;;;;;;;11.52;9.40;;;;;;;23.88;89.11;100125.13;5007729;28;20032;-71
2021/06/20 03:23:11;;;;;;;12.20;9.90;;;;;;;23.83;89.29;100130.44;4995462;28;20037;-71
2021/06/20 03:25:38;;;;;;;11.43;9.82;;;;;;;23.81;89.65;100128.16;4991691;28;20038;-71
2021/06/20 03:28:04;;;;;;;11.05;9.23;;;;;;;23.86;89.83;100135.06;5004543;28;20038;-71
2021/06/20 03:30:29;;;;;;;20.20;9.80;;;;;;;23.83;89.85;100130.44;5007166;28;20052;-71
2021/06/20 03:32:55;;;;;;;12.50;10.27;;;;;;;23.82;90.07;100132.47;5010569;28;20052;-72
2021/06/20 03:35:20;;;;;;;11.77;9.38;;;;;;;23.89;89.75;100126.66;5009183;28;20116;-71
2021/06/20 03:37:46;;;;;;;11.43;9.73;;;;;;;23.76;90.94;100112.28;5003998;28;20076;-72
2021/06/20 03:40:12;;;;;;;16.75;9.93;;;;;;;23.83;90.68;100117.47;5010282;28;20041;-72
2021/06/20 03:42:37;;;;;;;13.52;9.77;;;;;;;23.92;90.49;100109.22;5010102;28;20049;-72
2021/06/20 03:45:24;;;;;;;14.00;10.13;;;;;;;24.03;89.54;100112.31;5009153;28;20377;-71
2021/06/20 03:47:49;;;;;;;14.35;9.90;;;;;;;23.95;90.41;100102.81;4949776;29;20047;-71
2021/06/20 03:50:15;;;;;;;16.27;10.23;;;;;;;23.96;90.45;100095.31;4942510;29;20050;-70
2021/06/20 03:52:40;;;;;;;14.85;10.77;;;;;;;24.02;90.18;100099.00;4947565;29;20141;-72
2021/06/20 03:55:08;;;;;;;13.05;10.52;;;;;;;23.96;90.80;100081.56;4942147;29;20039;-71
2021/06/20 03:57:33;;;;;;;11.18;9.80;;;;;;;23.86;91.90;100082.78;4942096;29;20178;-71
2021/06/20 03:59:59;;;;;;;15.18;10.80;;;;;;;23.99;91.27;100064.13;4948729;28;20114;-71
2021/06/20 04:02:24;;;;;;;15.65;11.50;;;;;;;24.07;90.99;100057.09;4931386;29;20043;-72
2021/06/20 04:04:50;;;;;;;14.50;11.20;;;;;;;24.08;90.79;100045.63;4949052;29;20039;-71
2021/06/20 04:07:16;;;;;;;13.75;10.88;;;;;;;23.99;91.44;100039.34;4945088;29;20143;-71
2021/06/20 04:09:43;;;;;;;16.83;11.00;;;;;;;24.04;91.45;100036.75;4947043;28;20051;-71
2021/06/20 04:12:10;;;;;;;15.00;10.63;;;;;;;23.98;92.16;100044.09;4940117;29;20172;-72
2021/06/20 04:14:37;;;;;;;12.00;10.65;;;;;;;24.05;91.76;100051.28;4948358;29;20086;-71
2021/06/20 04:17:02;;;;;;;14.30;10.75;;;;;;;23.89;92.75;100037.81;4940899;29;20043;-71
2021/06/20 04:19:30;;;;;;;15.75;11.45;;;;;;;23.88;93.29;100037.09;4947971;29;20046;-72
2021/06/20 04:21:55;;;;;;;14.48;11.05;;;;;;;23.98;92.73;100030.31;4933416;29;20035;-72
2021/06/20 04:24:21;;;;;;;13.10;10.88;;;;;;;24.15;91.31;100064.59;4960307;28;20048;-71
2021/06/20 04:26:47;;;;;;;16.13;12.02;;;;;;;24.10;92.11;100262.59;5001950;28;20034;-71
2021/06/20 04:29:13;;;;;;;15.25;13.07;;;;;;;24.03;92.71;100287.66;4995751;28;20022;-71
2021/06/20 04:31:38;;;;;;;18.70;12.77;;;;;;;23.81;94.39;100237.47;4990650;28;20037;-71
2021/06/20 04:34:04;;;;;;;27.67;15.50;;;;;;;23.80;96.18;100233.16;5002503;28;20069;-71
2021/06/20 04:36:30;;;;;;;27.08;15.00;;;;;;;23.95;97.77;100228.59;5011600;28;20037;-72
2021/06/20 04:38:55;;;;;;;17.50;14.48;;;;;;;23.90;97.98;100251.22;4996046;28;20399;-72
2021/06/20 04:41:22;;;;;;;21.40;13.65;;;;;;;24.02;98.33;100233.88;5006894;28;20033;-71
2021/06/20 04:46:29;;;;;;;15.93;11.68;;;;;;;23.96;98.07;100199.88;5012312;28;20017;-72
2021/06/20 04:48:57;;;;;;;16.33;11.73;;;;;;;23.91;100.00;100212.25;5010260;28;20037;-71
2021/06/20 04:51:23;;;;;;;15.63;11.60;;;;;;;23.88;100.00;100224.19;5011528;28;20419;-71
2021/06/20 04:53:49;;;;;;;17.65;12.95;;;;;;;23.90;100.00;100216.22;4995095;28;20046;-73
2021/06/20 04:56:14;;;;;;;17.33;12.10;;;;;;;23.79;100.00;100215.16;5012884;28;20041;-73
2021/06/20 04:58:41;;;;;;;15.13;12.23;;;;;;;23.79;100.00;100206.88;5005138;28;20045;-72
2021/06/20 05:01:07;;;;;;;17.02;13.15;;;;;;;23.75;100.00;100228.28;5007678;28;20113;-72
2021/06/20 05:03:33;;;;;;;17.85;11.57;;;;;;;23.66;100.00;100228.22;5011270;28;20109;-72
2021/06/20 05:05:58;;;;;;;15.27;10.23;;;;;;;23.63;100.00;100226.41;4994079;28;20521;-72
2021/06/20 05:08:24;;;;;;;12.55;8.95;;;;;;;23.64;100.00;100195.69;5009784;28;20079;-72
2021/06/20 05:10:53;;;;;;;14.65;8.15;;;;;;;23.51;100.00;100186.03;5006775;28;20041;-72
2021/06/20 05:13:20;;;;;;;13.70;8.20;;;;;;;23.48;100.00;100208.94;5005702;28;20101;-72
2021/06/20 05:15:45;;;;;;;12.05;6.97;;;;;;;23.50;100.00;100226.50;4991570;28;20038;-72
2021/06/20 05:18:11;;;;;;;11.38;6.82;;;;;;;23.54;100.00;100229.13;5005281;28;20044;-72
2021/06/20 05:20:38;;;;;;;17.77;8.05;;;;;;;23.49;100.00;100222.22;5000846;28;20050;-72
2021/06/20 05:23:04;;;;;;;11.88;8.02;;;;;;;23.40;100.00;100229.69;5005674;28;20037;-72
2021/06/20 05:25:29;;;;;;;17.15;7.65;;;;;;;23.44;100.00;100230.31;5003805;28;20041;-72
2021/06/20 05:27:54;;;;;;;11.52;7.22;;;;;;;23.33;100.00;100236.22;4997923;28;20030;-71
2021/06/20 05:30:20;;;;;;;7.43;6.43;;;;;;;23.30;100.00;100220.59;4995406;28;20030;-72
2021/06/20 05:32:49;;;;;;;11.50;5.75;;;;;;;23.32;100.00;100247.66;4995043;28;20068;-71
2021/06/20 05:35:15;;;;;;;12.65;5.97;;;;;;;23.22;100.00;100228.38;4993264;28;20037;-70
2021/06/20 05:37:40;;;;;;;13.25;6.10;;;;;;;23.17;100.00;100226.19;4995992;28;20096;-72
2021/06/20 05:40:06;;;;;;;15.75;4.40;;;;;;;23.11;100.00;100213.50;5009475;28;20040;-72
2021/06/20 05:42:32;;;;;;;7.50;3.83;;;;;;;23.02;100.00;100192.22;5007325;28;20044;-72
2021/06/20 05:44:58;;;;;;;10.43;4.28;;;;;;;23.00;100.00;100160.91;5003882;28;20034;-72
2021/06/20 05:47:23;;;;;;;10.98;4.28;;;;;;;22.87;100.00;100163.75;5012346;28;20084;-71
2021/06/20 05:49:49;;;;;;;7.03;3.80;;;;;;;22.87;100.00;100163.00;5011448;28;20038;-69
2021/06/20 05:52:14;;;;;;;7.60;3.50;;;;;;;22.68;100.00;100153.13;5011782;28;20503;-71
2021/06/20 05:54:40;;;;;;;8.32;3.35;;;;;;;22.75;100.00;100150.88;5011452;28;20041;-72
2021/06/20 05:57:06;;;;;;;6.43;3.20;;;;;;;22.71;100.00;100158.47;5007741;28;20065;-70
2021/06/20 05:59:31;;;;;;;7.03;3.70;;;;;;;22.75;100.00;100163.84;5009641;28;20030;-72
2021/06/20 06:01:57;;;;;;;10.88;3.67;;;;;;;22.69;100.00;100146.41;5011546;28;20061;-72
2021/06/20 06:04:24;;;;;;;9.02;3.90;;;;;;;22.71;100.00;100125.53;4994063;28;20037;-72
2021/06/20 06:06:49;;;;;;;9.20;3.80;;;;;;;22.63;100.00;100096.81;4989874;28;20117;-72
2021/06/20 06:09:15;;;;;;;6.57;3.90;;;;;;;22.70;100.00;100088.31;5000080;28;20116;-72
2021/06/20 06:11:40;;;;;;;9.88;3.60;;;;;;;22.78;100.00;100078.59;5006866;28;20405;-71
2021/06/20 06:14:06;;;;;;;9.25;4.20;;;;;;;22.82;100.00;100062.72;4991245;28;20065;-72
2021/06/20 06:16:32;;;;;;;8.85;3.97;;;;;;;22.77;100.00;100057.81;5010113;28;20518;-72
2021/06/20 06:18:57;;;;;;;9.15;3.90;;;;;;;22.82;100.00;100065.44;4989000;28;20033;-72
2021/06/20 06:21:22;;;;;;;8.93;3.60;;;;;;;22.87;100.00;100066.84;4998107;28;20089;-71
2021/06/20 06:23:48;;;;;;;8.73;4.13;;;;;;;22.82;100.00;100062.72;5008901;28;20034;-72
2021/06/20 06:26:13;;;;;;;10.98;3.80;;;;;;;22.71;100.00;100051.38;5006739;28;20080;-70
2021/06/20 06:28:39;;;;;;;10.13;4.78;;;;;;;22.74;100.00;100046.97;4990069;28;20061;-71
2021/06/20 06:31:05;;;;;;;12.05;4.13;;;;;;;22.59;100.00;100049.50;5002764;28;20027;-72
2021/06/20 06:33:31;;;;;;;15.80;4.18;;;;;;;22.70;100.00;100058.09;5006529;28;20045;-71
2021/06/20 06:35:56;;;;;;;9.38;3.88;;;;;;;22.69;100.00;100062.06;5005317;28;20092;-72
2021/06/20 06:38:22;;;;;;;8.52;3.80;;;;;;;22.70;100.00;100065.56;5007032;28;20056;-72
2021/06/20 06:40:47;;;;;;;7.95;4.07;;;;;;;22.83;100.00;100069.75;5010370;28;20113;-71
2021/06/20 06:43:13;;;;;;;8.27;3.72;;;;;;;22.91;100.00;100072.97;4992022;28;20419;-72
2021/06/20 06:45:39;;;;;;;8.52;3.95;;;;;;;22.91;100.00;100054.53;5008807;28;20030;-72
2021/06/20 06:48:08;;;;;;;12.43;3.75;;;;;;;22.80;100.00;100048.66;4992127;28;20416;-72
2021/06/20 06:50:33;;;;;;;11.20;3.95;;;;;;;22.83;100.00;100047.78;4984072;28;20029;-72
2021/06/20 06:52:59;;;;;;;9.13;3.72;;;;;;;22.90;100.00;100047.47;5008673;28;20046;-73
2021/06/20 06:55:24;;;;;;;8.48;4.50;;;;;;;23.03;100.00;100036.38;4987313;28;20034;-72
2021/06/20 06:57:50;;;;;;;8.15;3.80;;;;;;;23.07;100.00;100034.25;5009141;28;20109;-71
2021/06/20 07:00:15;;;;;;;13.73;3.88;;;;;;;23.13;100.00;100035.19;4991460;28;20045;-72
2021/06/20 07:02:41;;;;;;;8.50;3.60;;;;;;;23.20;100.00;100038.41;5006675;28;20034;-72
2021/06/20 07:05:07;;;;;;;8.18;3.67;;;;;;;23.24;100.00;100039.03;5006461;28;20065;-72
2021/06/20 07:07:33;;;;;;;12.68;3.90;;;;;;;23.28;100.00;100036.91;5001563;28;20026;-73
2021/06/20 07:10:00;;;;;;;10.63;4.22;;;;;;;23.32;100.00;100033.25;4997690;28;20069;-73
2021/06/20 07:12:29;;;;;;;12.15;4.40;;;;;;;23.42;100.00;100043.03;4988970;28;20033;-73
2021/06/20 07:14:55;;;;;;;10.48;4.07;;;;;;;23.69;100.00;100043.78;5009890;28;20100;-73
2021/06/20 07:17:21;;;;;;;9.50;3.63;;;;;;;23.88;100.00;100052.81;4985269;28;20117;-72
2021/06/20 07:19:47;;;;;;;8.73;3.35;;;;;;;23.82;100.00;100055.44;5008797;28;20440;-73
2021/06/20 07:22:12;;;;;;;7.93;3.35;;;;;;;23.99;100.00;100048.38;4985382;28;20034;-73
2021/06/20 07:24:37;;;;;;;10.00;3.35;;;;;;;24.09;100.00;100057.41;5004887;28;20101;-73
2021/06/20 07:27:03;;;;;;;10.43;3.63;;;;;;;24.13;100.00;100074.53;5000188;28;20048;-72
2021/06/20 07:29:29;;;;;;;10.57;3.40;;;;;;;24.22;100.00;100074.50;5009084;28;20068;-73
2021/06/20 07:31:54;;;;;;;9.65;3.55;;;;;;;24.24;100.00;100083.06;4987247;28;20072;-73
2021/06/20 07:34:20;;;;;;;11.82;3.75;;;;;;;24.20;100.00;100068.69;5009094;28;20061;-72
2021/06/20 07:36:45;;;;;;;8.23;3.65;;;;;;;24.27;100.00;100065.63;4991137;28;20065;-73
2021/06/20 07:39:11;;;;;;;6.47;3.55;;;;;;;24.31;99.49;100059.97;5002524;28;20040;-72
2021/06/20 07:41:37;;;;;;;5.93;3.60;;;;;;;24.45;100.00;100067.59;4985283;28;20034;-71
2021/06/20 07:44:02;;;;;;;10.27;3.40;;;;;;;24.70;100.00;100062.44;5005903;28;20030;-72
2021/06/20 07:46:28;;;;;;;7.22;3.42;;;;;;;24.81;98.91;100072.97;5006376;28;20034;-72
2021/06/20 07:48:53;;;;;;;11.20;3.90;;;;;;;24.96;98.57;100071.84;4994513;28;20037;-73
2021/06/20 07:51:19;;;;;;;8.45;3.45;;;;;;;25.17;98.82;100077.53;4987837;28;20033;-73
2021/06/20 07:53:44;;;;;;;8.02;4.03;;;;;;;25.40;97.95;100068.53;5007922;28;20488;-72
2021/06/20 07:56:09;;;;;;;14.82;4.18;;;;;;;25.40;94.21;100052.75;4989531;28;20053;-72
2021/06/20 07:58:35;;;;;;;9.73;4.18;;;;;;;25.19;93.80;100058.53;4994099;28;20041;-72
2021/06/20 08:01:00;;;;;;;14.45;3.88;;;;;;;25.20;95.87;100055.31;5009935;23;20062;-74
2021/06/20 08:03:27;;;;;;;11.23;3.72;;;;;;;25.39;95.45;100064.22;5009798;28;20083;-72
2021/06/20 08:05:52;;;;;;;10.90;3.78;;;;;;;25.52;95.50;100062.00;5013254;28;20053;-74
2021/06/20 08:08:18;;;;;;;12.25;4.00;;;;;;;25.72;95.16;100051.91;4991051;28;20482;-74
2021/06/20 08:10:44;;;;;;;15.27;4.00;;;;;;;25.95;94.24;100055.84;4999528;28;20038;-74
2021/06/20 08:13:10;;;;;;;9.68;4.00;;;;;;;26.09;95.93;100057.09;5007302;28;20069;-73
2021/06/20 08:15:36;;;;;;;10.40;4.00;;;;;;;26.21;91.83;100059.56;5005539;28;20112;-72
2021/06/20 08:18:01;;;;;;;11.93;4.32;;;;;;;26.45;91.20;100056.72;5006240;28;20042;-74
2021/06/20 08:20:27;;;;;;;11.18;4.00;;;;;;;26.60;92.96;100069.28;4989644;28;20037;-74
2021/06/20 08:22:52;;;;;;;13.75;4.40;;;;;;;26.75;93.30;100072.06;4995958;28;20796;-74
2021/06/20 08:25:18;;;;;;;10.30;4.30;;;;;;;26.95;89.48;100071.31;4998435;28;20089;-75
2021/06/20 08:27:44;;;;;;;13.57;4.47;;;;;;;27.10;89.87;100078.34;5012214;28;20526;-74
2021/06/20 08:30:11;;;;;;;12.15;4.63;;;;;;;27.27;89.54;100084.88;5009865;28;20123;-75
2021/06/20 08:32:37;;;;;;;11.68;4.60;;;;;;;27.27;88.32;100082.09;5011381;28;20053;-74
2021/06/20 08:35:04;;;;;;;9.60;3.65;;;;;;;27.33;88.95;100069.13;5009569;28;20029;-74
2021/06/20 08:37:29;;;;;;;10.68;4.00;;;;;;;27.40;89.37;100073.47;4989818;28;20040;-74
2021/06/20 08:39:56;;;;;;;10.27;4.03;;;;;;;27.51;89.06;100079.16;5010148;28;20033;-74
2021/06/20 08:42:21;;;;;;;15.70;4.15;;;;;;;27.45;89.65;100081.84;4993420;28;20045;-74
2021/06/20 08:44:47;;;;;;;9.50;3.70;;;;;;;27.19;88.17;100085.75;5006493;28;20129;-75
2021/06/20 08:47:13;;;;;;;12.95;3.92;;;;;;;27.18;86.34;100096.03;5006412;28;20479;-74
2021/06/20 08:49:39;;;;;;;14.25;3.85;;;;;;;27.01;88.06;100099.81;4997020;28;20495;-74
2021/06/20 08:52:05;;;;;;;6.22;3.60;;;;;;;26.90;85.94;100110.72;4994112;28;20119;-74
2021/06/20 08:54:31;;;;;;;9.73;3.80;;;;;;;26.70;85.74;100117.72;5007912;28;20045;-75
2021/06/20 08:56:57;;;;;;;7.45;3.60;;;;;;;26.59;87.27;100116.75;5012056;28;20048;-74
2021/06/20 08:59:24;;;;;;;12.73;4.07;;;;;;;26.51;87.04;100127.41;4984695;28;20116;-75
2021/06/20 09:01:51;;;;;;;11.50;4.13;;;;;;;26.32;86.16;100123.31;5012438;28;20519;-75
2021/06/20 09:04:35;;;;;;;5.95;3.83;;;;;;;26.19;86.39;100130.34;4979485;28;20120;-74
2021/06/20 09:07:03;;;;;;;8.65;3.67;;;;;;;26.14;87.72;100136.50;5006019;28;20042;-74
2021/06/20 09:09:30;;;;;;;7.28;3.38;;;;;;;26.08;85.64;100121.84;4990141;28;20068;-75
2021/06/20 09:12:27;;;;;;;10.13;3.70;;;;;;;25.88;85.37;100123.19;5012875;28;20036;-74
2021/06/20 09:14:52;;;;;;;8.40;3.65;;;;;;;25.86;85.53;100145.00;4982199;28;20045;-75
2021/06/20 09:17:29;;;;;;;8.70;3.65;;;;;;;25.80;84.92;100154.41;4989261;28;20499;-75
2021/06/20 09:20:04;;;;;;;5.93;3.53;;;;;;;25.76;87.21;100164.88;5011022;28;20046;-74
2021/06/20 09:22:30;;;;;;;8.00;4.03;;;;;;;25.81;86.86;100169.72;4984700;28;20404;-74
2021/06/20 09:25:06;;;;;;;11.52;3.80;;;;;;;25.82;85.40;100174.03;5000672;28;20021;-74
2021/06/20 09:27:33;;;;;;;9.27;3.65;;;;;;;25.79;86.49;100166.66;4994744;28;20119;-75
2021/06/20 09:30:12;;;;;;;4.88;3.67;;;;;;;25.81;85.53;100176.00;4996220;28;20129;-74
2021/06/20 09:32:51;;;;;;;8.60;4.30;;;;;;;25.87;84.38;100185.16;5000179;28;20041;-75
2021/06/20 09:35:17;;;;;;;9.82;4.30;;;;;;;25.91;83.43;100171.97;4994987;28;20038;-75
2021/06/20 09:37:53;;;;;;;15.10;4.72;;;;;;;25.90;85.10;100175.94;5009980;28;20044;-74
2021/06/20 09:40:20;;;;;;;7.90;4.90;;;;;;;25.90;84.10;100189.75;4990853;28;20034;-75
2021/06/20 09:42:45;;;;;;;6.07;4.30;;;;;;;25.91;83.89;100180.25;5012298;28;20587;-75
2021/06/20 09:45:11;;;;;;;9.27;5.13;;;;;;;25.81;83.07;100195.34;5011034;28;20112;-74
2021/06/20 09:47:40;;;;;;;9.27;4.57;;;;;;;25.88;83.24;100202.47;4990871;28;20038;-74
2021/06/20 09:50:10;;;;;;;10.98;4.90;;;;;;;25.72;82.92;100200.16;5006546;28;20824;-75
2021/06/20 09:52:36;;;;;;;10.63;5.00;;;;;;;25.65;85.10;100186.69;4987157;28;20085;-74
2021/06/20 09:55:10;;;;;;;6.75;4.60;;;;;;;25.63;86.07;100187.16;4977059;28;20194;-74
2021/06/20 09:57:43;;;;;;;11.32;4.68;;;;;;;25.75;85.00;100199.19;4975005;28;20447;-73
2021/06/20 10:00:11;;;;;;;11.13;4.45;;;;;;;25.67;84.51;100196.03;4970651;28;20042;-74
2021/06/20 10:02:42;;;;;;;8.38;5.00;;;;;;;25.77;84.89;100191.97;5003307;28;20041;-75
2021/06/20 10:05:09;;;;;;;10.00;4.95;;;;;;;25.81;84.89;100189.03;5009906;28;20029;-74
2021/06/20 10:07:35;;;;;;;6.63;4.68;;;;;;;25.82;85.50;100191.31;4989982;28;20060;-74
2021/06/20 10:10:04;;;;;;;10.15;5.22;;;;;;;25.86;84.58;100188.41;5010947;28;20155;-74
2021/06/20 10:12:29;;;;;;;8.25;5.10;;;;;;;25.96;84.80;100181.56;5007614;28;20099;-74
2021/06/20 10:14:57;;;;;;;11.20;4.93;;;;;;;26.16;85.23;100179.00;5003057;28;20535;-75
2021/06/20 10:17:36;;;;;;;10.38;5.40;;;;;;;26.22;83.02;100165.28;5011793;28;20038;-74
2021/06/20 10:20:13;;;;;;;11.25;5.07;;;;;;;26.36;84.12;100176.38;4993827;28;20446;-74
2021/06/20 10:22:41;;;;;;;8.70;5.22;;;;;;;26.49;83.45;100185.16;5003694;28;20507;-75
2021/06/20 10:25:10;;;;;;;8.60;4.93;;;;;;;26.61;83.48;100186.13;5007171;28;20030;-75
2021/06/20 10:27:44;;;;;;;8.90;5.40;;;;;;;26.76;79.24;100182.13;5010763;28;20407;-74
2021/06/20 10:30:35;;;;;;;8.43;5.32;;;;;;;26.81;79.79;100183.47;5007506;28;20045;-75
2021/06/20 10:33:16;;;;;;;11.10;5.18;;;;;;;26.94;81.43;100191.47;5008471;28;20129;-75
2021/06/20 10:35:43;;;;;;;11.02;5.70;;;;;;;26.99;79.10;100193.56;5009854;28;20125;-76
2021/06/20 10:38:34;;;;;;;8.65;5.30;;;;;;;26.94;78.58;100185.94;5012849;28;20056;-75
2021/06/20 10:41:00;;;;;;;11.15;5.43;;;;;;;26.92;78.74;100175.38;5011222;28;20018;-75
2021/06/20 10:43:25;;;;;;;8.73;5.50;;;;;;;26.78;80.55;100184.41;4987830;28;20037;-75
2021/06/20 10:45:51;;;;;;;11.70;5.25;;;;;;;26.81;81.26;100183.47;4976543;28;20037;-75
2021/06/20 10:48:16;;;;;;;5.32;4.70;;;;;;;26.89;81.75;100183.84;5013355;28;20034;-75
2021/06/20 10:50:45;;;;;;;9.98;5.38;;;;;;;26.74;79.22;100189.38;5007446;28;20060;-75
2021/06/20 10:53:11;;;;;;;10.23;5.80;;;;;;;26.90;76.99;100175.09;5007441;28;20538;-75
2021/06/20 10:55:57;;;;;;;8.65;5.50;;;;;;;26.91;77.73;100175.81;5012072;28;20069;-75
2021/06/20 10:58:28;;;;;;;10.73;5.28;;;;;;;27.28;76.11;100174.13;4995748;28;20033;-75
2021/06/20 11:01:07;;;;;;;9.30;5.07;;;;;;;27.41;75.89;100185.69;5010098;28;20038;-75
2021/06/20 11:03:33;;;;;;;9.73;5.55;;;;;;;27.62;73.59;100182.47;4994727;28;20099;-75
2021/06/20 11:06:11;;;;;;;11.77;5.45;;;;;;;27.62;70.07;100182.47;4991978;28;20030;-75
2021/06/20 11:08:41;;;;;;;8.20;5.07;;;;;;;27.68;72.29;100188.84;5000126;28;20026;-75
2021/06/20 11:11:09;;;;;;;7.25;5.07;;;;;;;27.62;72.07;100192.78;5013014;28;20400;-75
2021/06/20 11:13:36;;;;;;;7.65;5.30;;;;;;;27.57;72.25;100188.69;5012291;28;20050;-75
2021/06/20 11:16:08;;;;;;;7.28;4.80;;;;;;;27.67;72.76;100192.09;4987855;28;20506;-75
2021/06/20 11:18:34;;;;;;;10.02;5.10;;;;;;;27.68;71.63;100188.84;4997317;28;20076;-76
2021/06/20 11:21:00;;;;;;;11.30;5.20;;;;;;;27.76;70.84;100197.50;4976381;28;20484;-75